Time;durP1;ratioP1;P1;durP2;ratioP2;P2;SDS_P1;SDS_P2;PMS_P1;PMS_P2;Temp;Humidity;BMP_temperature;BMP_pressure;BME280_temperature;BME280_humidity;BME280_pressure;Samples;Min_cycle;Max_cycle;Signal;HPM_P1;HPM_P2
2022/06/17 00:01:14;;;;;;;1.27;0.63;;;;;;;15.82;100.00;99012.44;15276231;19;20026;-47
2022/06/17 00:06:19;;;;;;;3.47;0.70;;;;;;;15.57;100.00;99013.44;15278385;19;20021;-48
2022/06/17 00:11:29;;;;;;;2.00;0.70;;;;;;;15.44;100.00;99017.78;15278640;19;20015;-48
2022/06/17 00:16:34;;;;;;;2.43;0.70;;;;;;;15.35;100.00;99025.94;15272137;19;20498;-58
2022/06/17 00:21:42;;;;;;;1.38;0.50;;;;;;;15.28;100.00;99008.69;15277478;19;20082;-47
2022/06/17 00:26:50;;;;;;;1.25;0.52;;;;;;;15.18;100.00;99013.50;15277251;19;21369;-51
2022/06/17 00:31:56;;;;;;;1.95;0.73;;;;;;;15.08;100.00;99013.69;15276167;19;20408;-54
2022/06/17 00:37:06;;;;;;;1.65;0.65;;;;;;;14.95;100.00;99017.81;15273656;19;20379;-58
2022/06/17 00:42:18;;;;;;;3.22;0.73;;;;;;;14.90;100.00;99016.63;15276221;19;20386;-55
2022/06/17 00:47:32;;;;;;;1.65;0.63;;;;;;;14.79;100.00;99016.00;15270205;19;20838;-53
2022/06/17 00:52:42;;;;;;;1.00;0.50;;;;;;;14.61;100.00;99020.78;15273951;19;20019;-47
2022/06/17 00:57:49;;;;;;;0.98;0.60;;;;;;;14.47;100.00;99023.16;15277578;19;20014;-51
2022/06/17 01:02:59;;;;;;;1.33;0.70;;;;;;;14.30;100.00;99026.88;15275148;19;20714;-47
2022/06/17 01:08:14;;;;;;;1.45;0.70;;;;;;;14.25;100.00;99032.81;15271499;19;20023;-47
2022/06/17 01:13:22;;;;;;;1.73;0.65;;;;;;;14.28;100.00;99034.38;15274305;19;20027;-49
2022/06/17 01:18:29;;;;;;;1.25;0.70;;;;;;;14.26;100.00;99022.84;15272501;19;20014;-47
2022/06/17 01:23:41;;;;;;;3.33;0.90;;;;;;;14.22;100.00;99029.63;15266297;19;20029;-47
2022/06/17 01:28:47;;;;;;;1.45;0.52;;;;;;;14.19;100.00;99030.81;15283810;19;20402;-48
2022/06/17 01:33:53;;;;;;;1.00;0.77;;;;;;;14.10;100.00;99043.50;15289950;19;20022;-51
2022/06/17 01:39:02;;;;;;;1.75;0.52;;;;;;;14.07;100.00;99043.81;15281370;19;20102;-53
2022/06/17 01:44:10;;;;;;;2.90;0.65;;;;;;;13.96;100.00;99046.88;15289866;19;20111;-48
2022/06/17 01:49:19;;;;;;;2.67;0.68;;;;;;;13.83;100.00;99041.97;15284125;19;20018;-49
2022/06/17 01:54:32;;;;;;;2.38;0.75;;;;;;;13.74;100.00;99054.63;15277628;19;20021;-56
2022/06/17 01:59:42;;;;;;;0.95;0.60;;;;;;;13.60;100.00;99053.44;15281920;19;20022;-48
2022/06/17 02:04:51;;;;;;;1.63;0.50;;;;;;;13.51;100.00;99079.63;15271085;19;20015;-54
2022/06/17 02:09:58;;;;;;;1.23;0.73;;;;;;;13.41;100.00;99065.38;15282817;19;20010;-53
2022/06/17 02:15:05;;;;;;;3.15;0.65;;;;;;;13.39;100.00;99080.88;15284594;19;20007;-52
2022/06/17 02:20:20;;;;;;;1.60;0.70;;;;;;;13.32;100.00;99078.00;15285238;19;20017;-56
2022/06/17 02:25:32;;;;;;;1.60;0.70;;;;;;;13.23;100.00;99068.97;15275725;19;20327;-53
2022/06/17 02:30:39;;;;;;;0.93;0.60;;;;;;;13.12;100.00;99039.50;15286441;19;20019;-52
2022/06/17 02:35:51;;;;;;;1.35;0.68;;;;;;;12.95;100.00;99050.28;15285904;19;20015;-51
2022/06/17 02:41:01;;;;;;;1.13;0.60;;;;;;;12.86;100.00;99058.50;15280158;19;20636;-53
2022/06/17 02:46:10;;;;;;;1.52;0.63;;;;;;;12.75;100.00;99063.16;15279231;19;20482;-54
2022/06/17 02:51:16;;;;;;;2.65;0.60;;;;;;;12.69;100.00;99055.72;15280322;19;20640;-53
2022/06/17 02:56:30;;;;;;;2.33;0.50;;;;;;;12.68;100.00;99047.72;15274062;19;20102;-52
2022/06/17 03:01:38;;;;;;;2.03;0.90;;;;;;;12.60;100.00;99052.09;15279624;19;20018;-59
2022/06/17 03:06:54;;;;;;;1.23;0.65;;;;;;;12.60;100.00;99062.03;15283120;19;20038;-51
2022/06/17 03:12:06;;;;;;;1.80;0.80;;;;;;;12.62;100.00;99055.50;15275917;19;20013;-52
2022/06/17 03:17:16;;;;;;;3.58;0.80;;;;;;;12.65;100.00;99067.84;15274186;19;20074;-51
2022/06/17 03:22:21;;;;;;;2.75;0.70;;;;;;;12.71;100.00;99077.16;15278601;19;20020;-53
2022/06/17 03:27:37;;;;;;;1.30;0.63;;;;;;;12.72;100.00;99077.00;15280212;19;20471;-53
2022/06/17 03:32:48;;;;;;;1.45;0.55;;;;;;;12.72;100.00;99095.09;15268784;19;20015;-50
2022/06/17 03:38:00;;;;;;;2.45;0.60;;;;;;;12.71;100.00;99101.50;15282196;19;20018;-50
2022/06/17 03:43:13;;;;;;;3.20;0.80;;;;;;;12.67;100.00;99089.28;15278329;19;20019;-53
2022/06/17 03:48:31;;;;;;;0.75;0.57;;;;;;;12.64;100.00;99088.59;15280263;19;20463;-52
2022/06/17 03:53:39;;;;;;;1.58;0.70;;;;;;;12.62;100.00;99089.78;15271490;19;20057;-58
2022/06/17 03:58:49;;;;;;;1.02;0.60;;;;;;;12.60;100.00;99091.78;15279385;19;20015;-51
2022/06/17 04:03:57;;;;;;;1.30;0.70;;;;;;;12.58;100.00;99100.06;15270149;19;20042;-50
2022/06/17 04:09:07;;;;;;;2.03;0.80;;;;;;;12.58;100.00;99096.53;15279689;19;20086;-53
2022/06/17 04:14:21;;;;;;;1.60;0.82;;;;;;;12.57;100.00;99106.47;15278272;19;20026;-53
2022/06/17 04:19:30;;;;;;;1.00;0.60;;;;;;;12.58;100.00;99102.75;15275894;19;20018;-54
2022/06/17 04:24:36;;;;;;;2.38;0.75;;;;;;;12.61;100.00;99107.84;15265555;19;20377;-52
2022/06/17 04:29:59;;;;;;;1.10;0.60;;;;;;;12.66;100.00;99101.09;15274075;19;20546;-52
2022/06/17 04:35:04;;;;;;;2.60;0.55;;;;;;;12.73;100.00;99110.31;15265652;19;20014;-53
2022/06/17 04:40:21;;;;;;;1.45;0.70;;;;;;;12.83;100.00;99110.19;15275885;19;20029;-60
2022/06/17 04:46:17;;;;;;;1.13;0.70;;;;;;;12.93;100.00;99109.06;15274466;19;20017;-55
2022/06/17 04:51:32;;;;;;;2.92;0.60;;;;;;;12.98;100.00;99110.47;15279220;19;20021;-58
2022/06/17 04:56:42;;;;;;;;;;;;;;;12.99;100.00;99115.72;15271866;19;20043;-53
2022/06/17 05:02:25;;;;;;;1.58;0.70;;;;;;;13.09;100.00;99111.03;15267949;19;19914;-50
2022/06/17 05:07:54;;;;;;;1.10;0.80;;;;;;;13.16;100.00;99111.22;15269860;19;20102;-57
2022/06/17 05:13:19;;;;;;;1.13;0.70;;;;;;;13.28;100.00;99122.63;15271523;19;20014;-51
2022/06/17 05:18:27;;;;;;;2.03;0.73;;;;;;;13.43;100.00;99128.31;15275769;19;20017;-55
2022/06/17 05:23:54;;;;;;;2.20;0.70;;;;;;;13.54;100.00;99129.88;15273226;19;20339;-51
2022/06/17 05:28:59;;;;;;;1.33;0.70;;;;;;;13.62;100.00;99153.44;15272245;19;20399;-54
2022/06/17 05:34:12;;;;;;;2.35;0.88;;;;;;;13.79;100.00;99160.63;15269201;19;20048;-50
2022/06/17 05:39:18;;;;;;;1.65;0.77;;;;;;;13.94;100.00;99173.50;15266657;19;20011;-52
2022/06/17 05:44:23;;;;;;;1.58;0.75;;;;;;;14.07;100.00;99162.22;15269137;19;20039;-53
2022/06/17 05:49:57;;;;;;;1.90;0.67;;;;;;;14.23;100.00;99164.94;15273171;19;20026;-51
2022/06/17 05:55:23;;;;;;;4.53;0.75;;;;;;;14.34;100.00;99169.19;15266094;19;20023;-59
2022/06/17 06:00:29;;;;;;;3.75;0.70;;;;;;;14.60;100.00;99163.63;15266056;19;20010;-55
2022/06/17 06:05:37;;;;;;;1.88;0.80;;;;;;;14.74;100.00;99159.44;15268432;19;20481;-53
2022/06/17 06:10:48;;;;;;;2.20;0.80;;;;;;;14.94;100.00;99159.06;15267836;19;20081;-50
2022/06/17 06:15:57;;;;;;;1.75;0.70;;;;;;;15.19;100.00;99161.75;15284838;19;20010;-52
2022/06/17 06:21:28;;;;;;;3.22;0.95;;;;;;;15.45;100.00;99163.38;15285068;19;20034;-52
2022/06/17 06:26:33;;;;;;;2.08;0.90;;;;;;;15.64;100.00;99165.69;15288260;19;20017;-56
2022/06/17 06:31:52;;;;;;;1.92;0.88;;;;;;;15.87;100.00;99170.38;15283094;19;20017;-59
2022/06/17 06:37:14;;;;;;;3.25;0.90;;;;;;;16.03;100.00;99180.31;15287948;19;20023;-55
2022/06/17 06:42:20;;;;;;;2.33;0.90;;;;;;;16.31;100.00;99177.09;15273354;19;20014;-56
2022/06/17 06:48:01;;;;;;;3.72;0.80;;;;;;;16.50;100.00;99183.94;15288247;19;20030;-51
2022/06/17 06:53:09;;;;;;;4.63;0.90;;;;;;;16.61;100.00;99191.69;15281448;19;20034;-52
2022/06/17 06:58:16;;;;;;;3.13;1.05;;;;;;;16.72;100.00;99189.56;15286186;19;20657;-55
2022/06/17 07:03:28;;;;;;;2.83;0.88;;;;;;;16.89;100.00;99190.25;15275207;19;20053;-52
2022/06/17 07:08:39;;;;;;;1.60;0.70;;;;;;;17.08;100.00;99197.09;15285135;19;20010;-51
2022/06/17 07:13:45;;;;;;;1.55;0.80;;;;;;;17.23;100.00;99197.13;15275036;19;20006;-58
2022/06/17 07:18:50;;;;;;;4.20;0.70;;;;;;;17.31;100.00;99204.38;15286286;19;20022;-54
2022/06/17 07:23:58;;;;;;;1.33;0.70;;;;;;;17.49;100.00;99204.84;15276253;19;20010;-51
2022/06/17 07:29:03;;;;;;;4.65;0.80;;;;;;;17.67;100.00;99203.66;15284205;19;20380;-53
2022/06/17 07:34:09;;;;;;;2.88;0.70;;;;;;;17.78;100.00;99211.34;15280338;19;20023;-52
2022/06/17 07:44:38;;;;;;;2.60;0.70;;;;;;;18.02;100.00;99223.00;15279067;19;20022;-58
2022/06/17 07:49:43;;;;;;;2.75;0.70;;;;;;;18.23;100.00;99215.91;15276876;19;20018;-59
2022/06/17 07:54:50;;;;;;;2.55;0.70;;;;;;;18.42;100.00;99219.91;15278752;19;20011;-50
2022/06/17 07:59:55;;;;;;;3.92;0.80;;;;;;;18.60;97.00;99219.47;15282145;19;20038;-58
2022/06/17 08:05:00;;;;;;;2.03;0.65;;;;;;;18.86;95.63;99224.34;15277639;19;20019;-52
2022/06/17 08:10:09;;;;;;;1.60;0.80;;;;;;;18.87;93.00;99226.03;15275326;19;20023;-59
2022/06/17 08:15:15;;;;;;;3.13;0.80;;;;;;;18.93;88.50;99219.81;15274293;19;20333;-49
2022/06/17 08:20:23;;;;;;;3.08;0.63;;;;;;;19.05;80.15;99211.94;15269008;19;20055;-52
2022/06/17 08:25:31;;;;;;;2.15;0.70;;;;;;;19.14;80.40;99214.53;15275893;19;20066;-53
2022/06/17 08:30:39;;;;;;;4.15;0.70;;;;;;;19.36;78.07;99218.06;15281058;19;20025;-55
2022/06/17 08:35:50;;;;;;;1.67;0.70;;;;;;;19.43;81.86;99212.66;15277605;19;20018;-53
2022/06/17 08:41:01;;;;;;;6.03;0.95;;;;;;;19.62;75.41;99206.47;15274822;19;20043;-51
2022/06/17 08:46:20;;;;;;;3.70;0.70;;;;;;;19.68;76.01;99211.16;15276044;19;20877;-54
2022/06/17 08:51:42;;;;;;;2.55;0.80;;;;;;;19.79;76.92;99219.81;15274357;19;20014;-57
2022/06/17 08:56:57;;;;;;;1.87;0.70;;;;;;;19.78;74.89;99208.03;15276490;19;20281;-58
2022/06/17 09:02:07;;;;;;;2.08;0.60;;;;;;;20.00;76.78;99200.59;15275962;19;20287;-54
2022/06/17 09:07:30;;;;;;;4.30;0.90;;;;;;;19.85;72.91;99203.47;15278149;19;20027;-57
2022/06/17 09:12:52;;;;;;;2.33;0.70;;;;;;;19.87;70.53;99192.34;15270202;19;20014;-54
2022/06/17 09:18:04;;;;;;;2.35;0.70;;;;;;;20.13;73.56;99177.09;15277893;19;20456;-56
2022/06/17 09:23:12;;;;;;;3.10;0.70;;;;;;;20.22;71.34;99178.59;15266393;19;20023;-50
2022/06/17 09:28:25;;;;;;;1.33;0.60;;;;;;;20.37;68.96;99175.69;15276975;19;20494;-51
2022/06/17 09:33:37;;;;;;;1.75;0.55;;;;;;;20.58;68.75;99166.47;15272163;19;20031;-55
2022/06/17 09:38:47;;;;;;;2.67;0.70;;;;;;;20.81;67.03;99165.25;15277106;19;20114;-53
2022/06/17 09:44:01;;;;;;;2.38;0.70;;;;;;;20.66;64.04;99167.31;15267121;19;20914;-60
2022/06/17 09:49:17;;;;;;;4.10;0.60;;;;;;;20.97;64.87;99166.72;15285769;19;20014;-50
2022/06/17 09:54:29;;;;;;;1.58;0.40;;;;;;;21.23;62.76;99174.06;15284105;19;20024;-50
2022/06/17 09:59:42;;;;;;;2.05;0.68;;;;;;;21.22;59.18;99166.06;15287595;19;20014;-52
2022/06/17 10:04:48;;;;;;;1.75;0.63;;;;;;;21.38;59.57;99170.25;15285419;19;20022;-51
2022/06/17 10:10:08;;;;;;;2.80;0.50;;;;;;;21.47;56.74;99168.97;15292530;19;20018;-53
2022/06/17 10:15:30;;;;;;;1.73;0.70;;;;;;;21.65;54.05;99173.81;15283279;19;20777;-51
2022/06/17 10:20:43;;;;;;;1.67;0.60;;;;;;;21.79;53.17;99165.53;15284212;19;20010;-54
2022/06/17 10:25:54;;;;;;;1.35;0.60;;;;;;;21.91;53.51;99163.00;15284131;19;20868;-52
2022/06/17 10:31:06;;;;;;;0.75;0.40;;;;;;;22.20;52.35;99156.09;15282495;19;20112;-57
2022/06/17 10:36:11;;;;;;;0.50;0.30;;;;;;;22.18;51.93;99144.50;15286382;19;20452;-54
2022/06/17 10:41:19;;;;;;;1.23;0.40;;;;;;;22.42;52.25;99142.88;15285790;19;20027;-53
2022/06/17 10:46:32;;;;;;;2.00;0.50;;;;;;;22.59;50.80;99128.63;15283394;19;20026;-53
2022/06/17 10:51:38;;;;;;;1.55;0.50;;;;;;;23.01;49.88;99117.91;15282313;19;20374;-52
2022/06/17 11:02:28;;;;;;;0.47;0.30;;;;;;;23.31;46.80;99114.50;15273975;19;20472;-57
2022/06/17 11:07:37;;;;;;;1.65;0.30;;;;;;;23.44;46.63;99112.66;15285180;19;20030;-52
2022/06/17 11:12:45;;;;;;;0.57;0.30;;;;;;;23.38;45.79;99120.75;15284685;19;20014;-58
2022/06/17 11:17:56;;;;;;;1.88;0.40;;;;;;;23.32;44.93;99107.94;15285642;19;20486;-56
2022/06/17 11:23:04;;;;;;;1.67;0.40;;;;;;;23.51;44.14;99102.41;15276963;19;20086;-56
2022/06/17 11:28:25;;;;;;;0.75;0.40;;;;;;;23.54;43.65;99110.22;15286208;19;20018;-50
2022/06/17 11:33:35;;;;;;;0.60;0.27;;;;;;;23.85;44.28;99111.09;15274445;19;20334;-54
2022/06/17 11:38:40;;;;;;;2.25;0.40;;;;;;;24.01;43.55;99104.16;15283189;19;20018;-53
2022/06/17 11:44:10;;;;;;;3.20;0.50;;;;;;;24.29;42.31;99098.03;15276803;19;20085;-55
2022/06/17 11:49:20;;;;;;;1.45;0.30;;;;;;;24.64;43.94;99087.34;15281761;19;20010;-54
2022/06/17 11:54:29;;;;;;;2.08;0.40;;;;;;;24.49;41.51;99090.53;15271795;19;20031;-49
2022/06/17 11:59:42;;;;;;;1.27;0.30;;;;;;;24.70;41.79;99084.50;15279898;19;20378;-55
2022/06/17 12:04:52;;;;;;;0.70;0.35;;;;;;;24.77;40.32;99081.63;15267173;19;20027;-56
2022/06/17 12:10:14;;;;;;;1.65;0.20;;;;;;;24.84;39.22;99093.38;15277592;19;20018;-56
2022/06/17 12:15:31;;;;;;;0.80;0.30;;;;;;;25.21;39.94;99087.63;15274594;19;20010;-52
2022/06/17 12:20:52;;;;;;;0.90;0.30;;;;;;;25.34;37.66;99074.66;15278099;19;20023;-52
2022/06/17 12:26:01;;;;;;;0.47;0.25;;;;;;;25.45;39.52;99068.31;15273507;19;20025;-54
2022/06/17 12:31:11;;;;;;;0.63;0.25;;;;;;;25.40;39.67;99070.94;15277832;19;20003;-53
2022/06/17 12:36:25;;;;;;;0.60;0.27;;;;;;;25.49;39.52;99066.72;15270177;19;20045;-54
2022/06/17 12:41:38;;;;;;;0.35;0.30;;;;;;;25.51;38.77;99070.09;15276822;19;20479;-53
2022/06/17 12:46:50;;;;;;;1.27;0.30;;;;;;;25.83;38.67;99064.09;15276871;19;20006;-57
2022/06/17 12:57:38;;;;;;;1.85;0.30;;;;;;;26.36;36.15;99047.44;15272008;19;20033;-59
2022/06/17 13:02:58;;;;;;;1.05;0.10;;;;;;;26.44;36.20;99033.19;15265198;19;20433;-53
2022/06/17 13:08:16;;;;;;;;;;;;;;;26.53;35.01;99038.28;15271263;19;20051;-56
2022/06/17 13:13:35;;;;;;;0.50;0.20;;;;;;;26.67;36.00;99022.25;15269151;19;19942;-56
2022/06/17 13:18:49;;;;;;;0.35;0.20;;;;;;;26.95;35.53;99015.78;15272270;19;20015;-48
2022/06/17 13:24:04;;;;;;;1.08;0.20;;;;;;;27.01;35.45;99020.25;15275949;19;20010;-56
2022/06/17 13:29:20;;;;;;;0.30;0.20;;;;;;;27.26;34.22;99013.41;15292396;19;20015;-55
2022/06/17 13:34:30;;;;;;;1.65;0.20;;;;;;;27.33;34.42;99007.69;15282181;19;20025;-53
2022/06/17 13:39:44;;;;;;;1.73;0.35;;;;;;;27.40;34.61;99024.09;15292149;19;20018;-57
2022/06/17 13:45:07;;;;;;;1.83;0.20;;;;;;;27.20;33.67;99014.44;15277343;19;20522;-55
2022/06/17 13:50:27;;;;;;;0.82;0.20;;;;;;;27.97;33.58;99007.06;15290228;19;20025;-53
2022/06/17 13:55:45;;;;;;;0.63;0.10;;;;;;;28.29;31.99;99003.50;15284351;19;20020;-50
2022/06/17 14:00:53;;;;;;;0.73;0.20;;;;;;;28.89;32.40;99006.16;15281635;19;20372;-49
2022/06/17 14:06:18;;;;;;;1.00;0.20;;;;;;;28.08;31.30;99005.25;15281725;19;20021;-53
2022/06/17 14:11:38;;;;;;;0.85;0.20;;;;;;;28.74;30.96;98989.47;15286666;19;20014;-53
2022/06/17 14:16:46;;;;;;;0.10;0.10;;;;;;;29.16;30.69;98991.34;15277629;19;20011;-55
2022/06/17 14:21:58;;;;;;;0.50;0.20;;;;;;;29.01;29.67;98985.72;15283882;19;20027;-53
2022/06/17 14:27:07;;;;;;;1.17;0.30;;;;;;;29.11;30.77;98996.84;15283827;19;20046;-53
2022/06/17 14:32:20;;;;;;;3.85;0.30;;;;;;;29.41;30.36;98980.63;15280632;19;20345;-58
2022/06/17 14:37:49;;;;;;;0.65;0.20;;;;;;;29.91;31.19;98975.50;15280543;19;20014;-55
2022/06/17 14:43:15;;;;;;;3.55;0.20;;;;;;;29.71;29.72;98974.34;15281562;19;20034;-52
2022/06/17 14:48:33;;;;;;;0.98;0.30;;;;;;;29.87;30.64;98974.38;15278754;19;20034;-58
2022/06/17 14:53:48;;;;;;;1.42;0.32;;;;;;;30.58;29.20;98968.03;15280975;19;20033;-54
2022/06/17 14:59:02;;;;;;;1.40;0.20;;;;;;;30.77;29.16;98963.81;15284197;19;20178;-54
2022/06/17 15:04:10;;;;;;;0.20;0.10;;;;;;;30.73;30.45;98958.84;15279719;19;20047;-55
2022/06/17 15:09:25;;;;;;;0.35;0.20;;;;;;;30.20;29.72;98963.88;15280184;19;20003;-48
2022/06/17 15:14:36;;;;;;;0.73;0.20;;;;;;;30.21;30.33;98957.19;15276424;19;20022;-53
2022/06/17 15:19:45;;;;;;;1.02;0.20;;;;;;;29.95;30.79;98954.41;15276557;19;20022;-53
2022/06/17 15:25:14;;;;;;;1.17;0.30;;;;;;;30.01;32.60;98946.91;15277376;19;20116;-53
2022/06/17 15:30:30;;;;;;;1.13;0.20;;;;;;;30.28;31.48;98941.09;15281654;19;20051;-54
2022/06/17 15:35:36;;;;;;;0.22;0.20;;;;;;;30.23;31.38;98949.44;15275172;19;20014;-49
2022/06/17 15:40:41;;;;;;;1.35;0.30;;;;;;;30.06;32.55;98933.03;15277046;19;20374;-48
2022/06/17 15:45:49;;;;;;;1.10;0.13;;;;;;;30.44;31.13;98926.03;15273063;19;20003;-49
2022/06/17 15:50:59;;;;;;;1.42;0.20;;;;;;;30.26;29.50;98927.47;15270755;19;20014;-48
2022/06/17 15:56:10;;;;;;;0.38;0.22;;;;;;;30.99;30.07;98927.31;15275837;19;20014;-77
2022/06/17 16:01:36;;;;;;;2.53;0.20;;;;;;;29.95;30.11;98932.19;15284337;19;20086;-77
2022/06/17 16:07:01;;;;;;;1.00;0.30;;;;;;;29.35;32.32;98930.69;15282521;19;20419;-77
2022/06/17 16:12:36;;;;;;;1.13;0.30;;;;;;;29.22;32.62;98931.97;15288032;19;20051;-77
2022/06/17 16:17:57;;;;;;;1.52;0.20;;;;;;;29.37;32.78;98938.72;15292825;19;20668;-77
2022/06/17 16:23:26;;;;;;;3.22;0.30;;;;;;;28.72;33.62;98937.03;15339321;19;20043;-78
2022/06/17 16:28:38;;;;;;;0.52;0.20;;;;;;;28.28;33.39;98934.50;15300993;19;20018;-78
2022/06/17 16:33:53;;;;;;;1.25;0.20;;;;;;;27.99;35.85;98932.00;15271471;19;20018;-77
2022/06/17 16:39:02;;;;;;;2.03;0.30;;;;;;;27.43;36.31;98932.28;15276687;19;20014;-77
2022/06/17 16:44:18;;;;;;;0.50;0.20;;;;;;;27.02;37.83;98930.69;15273886;19;20022;-77
2022/06/17 16:49:29;;;;;;;0.40;0.30;;;;;;;26.49;38.54;98930.22;15279183;19;20349;-77
2022/06/17 16:54:38;;;;;;;1.02;0.40;;;;;;;26.14;39.01;98937.72;15270715;19;20037;-77
2022/06/17 16:59:43;;;;;;;1.23;0.35;;;;;;;25.82;38.86;98929.94;15282399;19;20009;-79
2022/06/17 17:04:54;;;;;;;1.25;0.40;;;;;;;25.66;38.81;98930.78;15270175;19;20011;-77
2022/06/17 17:09:59;;;;;;;1.15;0.40;;;;;;;25.41;39.48;98934.72;15273966;19;20014;-79
2022/06/17 17:15:05;;;;;;;1.95;0.40;;;;;;;25.38;39.52;98935.16;15277437;19;20018;-77
2022/06/17 17:20:16;;;;;;;1.40;0.38;;;;;;;25.25;40.66;98936.31;15271519;19;20089;-78
2022/06/17 17:25:25;;;;;;;3.75;0.32;;;;;;;25.15;40.38;98945.22;15269719;19;20014;-77
2022/06/17 17:30:34;;;;;;;1.30;0.50;;;;;;;24.97;40.62;98939.88;15273942;19;20018;-76
2022/06/17 17:35:42;;;;;;;1.38;0.30;;;;;;;24.90;41.53;98940.81;15272811;19;20027;-76
2022/06/17 17:40:47;;;;;;;0.65;0.32;;;;;;;24.78;41.85;98931.75;15273437;19;20014;-77
2022/06/17 17:45:54;;;;;;;0.73;0.30;;;;;;;24.83;40.98;98926.34;15269282;19;20011;-77
2022/06/17 17:51:02;;;;;;;0.32;0.20;;;;;;;24.75;40.91;98932.25;15272108;19;20073;-77
2022/06/17 17:56:08;;;;;;;1.70;0.30;;;;;;;24.67;41.46;98930.66;15266001;19;20011;-76
2022/06/17 18:01:21;;;;;;;0.28;0.20;;;;;;;24.57;40.51;98935.94;15267586;19;20010;-77
2022/06/17 18:06:29;;;;;;;1.08;0.30;;;;;;;24.46;40.34;98935.69;15285832;19;20007;-77
2022/06/17 18:11:39;;;;;;;0.73;0.20;;;;;;;24.38;41.14;98941.56;15294323;19;20384;-79
2022/06/17 18:16:44;;;;;;;0.60;0.20;;;;;;;24.40;41.25;98930.34;15280699;19;20018;-76
2022/06/17 18:21:55;;;;;;;1.40;0.30;;;;;;;24.27;40.05;98937.75;15291566;19;20014;-77
2022/06/17 18:27:02;;;;;;;;;;;;;;;24.21;40.67;98935.94;15289172;19;20018;-77
2022/06/17 18:32:09;;;;;;;0.17;0.13;;;;;;;24.28;40.70;98927.56;15276574;19;19931;-74
2022/06/17 18:37:23;;;;;;;0.82;0.20;;;;;;;24.34;41.27;98925.75;15275353;19;20014;-74
2022/06/17 18:42:41;;;;;;;1.40;0.30;;;;;;;24.35;41.56;98917.25;15300464;19;20098;-75
2022/06/17 18:47:47;;;;;;;1.67;0.25;;;;;;;24.32;44.27;98928.75;15272801;19;20475;-74
2022/06/17 18:52:56;;;;;;;2.33;0.30;;;;;;;24.27;45.91;98926.72;15275954;19;20018;-74
2022/06/17 18:58:02;;;;;;;0.45;0.30;;;;;;;24.21;45.19;98924.91;15274512;19;20019;-75
2022/06/17 19:03:18;;;;;;;2.72;0.40;;;;;;;24.15;45.10;98923.13;15274692;19;20038;-75
2022/06/17 19:19:07;;;;;;;0.63;0.30;;;;;;;23.95;45.74;98929.78;15327642;19;20528;-76
2022/06/17 19:24:15;;;;;;;0.68;0.30;;;;;;;23.95;44.84;98923.44;15274021;19;21378;-76
2022/06/17 19:29:40;;;;;;;0.40;0.30;;;;;;;23.92;44.69;98927.50;15277517;19;20470;-76
2022/06/17 19:34:47;;;;;;;0.60;0.30;;;;;;;23.90;45.45;98929.66;15267475;19;20174;-76
2022/06/17 19:39:57;;;;;;;0.60;0.35;;;;;;;23.85;45.20;98932.25;15298920;19;20015;-75
2022/06/17 19:45:02;;;;;;;1.67;0.30;;;;;;;23.73;45.96;98937.75;15272241;19;20019;-75
2022/06/17 19:50:12;;;;;;;1.88;0.50;;;;;;;23.62;46.83;98942.13;15274403;19;20126;-76
2022/06/17 19:55:23;;;;;;;1.05;0.45;;;;;;;23.45;46.77;98943.88;15270409;19;20514;-76
2022/06/17 20:00:29;;;;;;;0.85;0.50;;;;;;;23.23;47.33;98945.19;15268623;19;20022;-75
2022/06/17 20:05:34;;;;;;;1.30;0.70;;;;;;;23.17;47.41;98928.75;15269498;19;20014;-76
2022/06/17 20:10:42;;;;;;;1.88;0.80;;;;;;;22.99;47.45;98932.38;15270311;19;20027;-76
2022/06/17 20:15:50;;;;;;;1.33;0.82;;;;;;;22.91;47.40;98930.75;15286414;19;20122;-77
2022/06/17 20:20:58;;;;;;;1.92;0.90;;;;;;;22.77;47.43;98930.91;15274642;19;20470;-77
2022/06/17 20:26:06;;;;;;;0.90;0.73;;;;;;;22.72;47.71;98927.16;15274227;19;20383;-77
2022/06/17 20:31:18;;;;;;;1.00;0.50;;;;;;;22.61;48.16;98939.78;15291495;19;20024;-77
2022/06/17 20:36:23;;;;;;;0.57;0.40;;;;;;;22.54;47.96;98930.75;15343398;19;20006;-77
2022/06/17 20:41:31;;;;;;;0.40;0.30;;;;;;;22.46;48.59;98924.50;15267409;19;20094;-78
2022/06/17 20:51:59;;;;;;;0.65;0.40;;;;;;;22.14;50.02;98921.81;15261777;19;20665;-75
2022/06/17 21:02:36;;;;;;;;;;;;;;;21.58;55.55;98912.50;15265921;19;20082;-74
2022/06/17 21:07:41;;;;;;;2.83;0.40;;;;;;;21.50;53.71;98894.41;15265639;19;20337;-74
2022/06/17 21:12:50;;;;;;;1.42;0.30;;;;;;;21.39;52.64;98897.84;15264543;19;20257;-75
2022/06/17 21:17:55;;;;;;;1.83;0.20;;;;;;;21.34;52.47;98897.69;15267188;19;20543;-75
2022/06/17 21:23:02;;;;;;;0.50;0.30;;;;;;;21.29;51.59;98892.03;15269212;19;20463;-75
2022/06/17 21:28:14;;;;;;;1.00;0.50;;;;;;;21.28;50.59;98885.72;15267063;19;20719;-76
2022/06/17 21:33:19;;;;;;;2.38;0.43;;;;;;;21.23;51.58;98889.09;15266922;19;20018;-76
2022/06/17 21:38:28;;;;;;;0.85;0.40;;;;;;;21.15;52.24;98892.09;15265279;19;20091;-76
2022/06/17 21:43:38;;;;;;;0.68;0.30;;;;;;;21.10;52.68;98883.69;15268064;19;20028;-76
2022/06/17 21:48:43;;;;;;;3.28;0.47;;;;;;;20.97;52.63;98878.28;15285177;19;20010;-76
2022/06/17 21:53:48;;;;;;;1.10;0.32;;;;;;;20.88;53.10;98881.25;15283905;19;20437;-76
2022/06/17 21:58:57;;;;;;;2.10;0.35;;;;;;;20.74;53.65;98871.41;15286871;19;20010;-76
2022/06/17 22:04:02;;;;;;;0.77;0.40;;;;;;;20.68;53.83;98883.19;15282360;19;20033;-75
2022/06/17 22:09:08;;;;;;;1.05;0.57;;;;;;;20.60;54.32;98879.66;15284785;19;20007;-76
2022/06/17 22:14:19;;;;;;;1.17;0.50;;;;;;;20.55;54.62;98876.72;15285353;19;20018;-76
2022/06/17 22:19:24;;;;;;;2.60;0.38;;;;;;;20.49;55.11;98874.84;15279301;19;20015;-76
2022/06/17 22:24:33;;;;;;;1.02;0.40;;;;;;;20.44;56.05;98874.63;15279911;19;20018;-76
2022/06/17 22:29:41;;;;;;;1.45;0.38;;;;;;;20.36;56.92;98881.19;15286147;19;20022;-75
2022/06/17 22:34:50;;;;;;;1.80;0.47;;;;;;;20.26;57.99;98884.38;15280265;19;20026;-76
2022/06/17 22:39:55;;;;;;;0.50;0.30;;;;;;;20.23;58.85;98873.00;15280953;19;20086;-76
2022/06/17 22:45:04;;;;;;;2.22;0.40;;;;;;;20.19;59.03;98880.78;15280557;19;20376;-76
2022/06/17 22:50:18;;;;;;;2.65;0.50;;;;;;;20.10;60.58;98882.06;15279291;19;20098;-75
2022/06/17 22:55:25;;;;;;;0.88;0.50;;;;;;;20.04;61.51;98877.47;15278493;19;20027;-76
2022/06/17 23:00:33;;;;;;;0.90;0.40;;;;;;;19.90;64.73;98879.34;15282863;19;20082;-76
2022/06/17 23:05:38;;;;;;;1.45;0.40;;;;;;;19.83;65.25;98865.63;15278646;19;20082;-76
2022/06/17 23:10:43;;;;;;;0.70;0.40;;;;;;;19.71;66.85;98868.19;15282701;19;20062;-76
2022/06/17 23:15:52;;;;;;;1.75;0.50;;;;;;;19.62;68.39;98851.13;15280446;19;20014;-76
2022/06/17 23:20:58;;;;;;;2.53;0.50;;;;;;;19.54;69.20;98849.44;15278676;19;20062;-76
2022/06/17 23:26:05;;;;;;;3.55;0.38;;;;;;;19.36;71.74;98833.66;15278680;19;20408;-77
2022/06/17 23:31:18;;;;;;;3.30;0.40;;;;;;;19.27;73.93;98832.19;15282206;19;20022;-76
2022/06/17 23:36:25;;;;;;;2.40;0.40;;;;;;;19.19;71.89;98827.75;15276540;19;20031;-75
2022/06/17 23:41:31;;;;;;;1.13;0.30;;;;;;;19.11;71.89;98827.13;15283011;19;20026;-75
2022/06/17 23:46:39;;;;;;;0.95;0.47;;;;;;;19.09;72.15;98814.53;15273203;19;20101;-75
2022/06/17 23:51:46;;;;;;;1.27;0.40;;;;;;;19.06;71.92;98814.94;15283891;19;20025;-76
2022/06/17 23:56:54;;;;;;;1.75;0.40;;;;;;;19.05;72.38;98809.69;15274461;19;20011;-76
